Time;durP1;ratioP1;P1;durP2;ratioP2;P2;SDS_P1;SDS_P2;PMS_P1;PMS_P2;Temp;Humidity;BMP_temperature;BMP_pressure;BME280_temperature;BME280_humidity;BME280_pressure;Samples;Min_cycle;Max_cycle;Signal;HPM_P1;HPM_P2
2022/01/06 00:01:54;;;;;;;13.75;3.65;;;;;;;1.26;97.88;101142.88;5074536;28;20057;-50
2022/01/06 00:04:22;;;;;;;13.27;3.45;;;;;;;1.07;98.77;101141.38;5075280;28;20056;-50
2022/01/06 00:06:52;;;;;;;24.27;7.35;;;;;;;1.11;99.74;101138.72;5074752;28;20063;-50
2022/01/06 00:09:21;;;;;;;13.68;5.40;;;;;;;1.06;99.82;101139.63;5075076;28;20063;-50
2022/01/06 00:11:49;;;;;;;10.77;3.80;;;;;;;1.07;100.00;101147.47;5074390;28;20057;-51
2022/01/06 00:14:23;;;;;;;14.75;3.40;;;;;;;1.19;99.79;101140.34;5074353;28;20499;-50
2022/01/06 00:17:15;;;;;;;11.27;3.28;;;;;;;1.25;99.20;101148.97;5074368;28;20420;-50
2022/01/06 00:25:17;;;;;;;10.50;2.88;;;;;;;1.00;99.55;101155.41;5056632;28;20057;-50
2022/01/06 00:27:45;;;;;;;13.57;2.67;;;;;;;0.92;100.00;101152.88;5074182;28;20053;-50
2022/01/06 00:30:14;;;;;;;9.68;3.08;;;;;;;1.01;99.69;101151.91;5074137;28;20052;-50
2022/01/06 00:32:42;;;;;;;12.43;3.15;;;;;;;1.05;99.56;101154.47;5074057;28;20057;-50
2022/01/06 00:35:10;;;;;;;10.15;2.65;;;;;;;1.03;99.20;101153.63;5073891;28;20063;-50
2022/01/06 00:37:40;;;;;;;7.35;3.08;;;;;;;0.98;99.02;101158.03;5074098;28;20059;-50
2022/01/06 00:40:09;;;;;;;9.82;3.20;;;;;;;0.96;99.57;101167.66;5074376;28;20064;-50
2022/01/06 00:42:38;;;;;;;13.00;2.78;;;;;;;0.92;99.71;101169.44;5074012;28;20063;-50
2022/01/06 00:45:07;;;;;;;15.27;2.47;;;;;;;0.93;99.84;101172.91;5074491;28;20504;-50
2022/01/06 00:47:35;;;;;;;11.57;2.92;;;;;;;0.97;99.84;101174.59;5074834;28;20057;-50
2022/01/06 00:50:05;;;;;;;11.80;2.70;;;;;;;0.90;99.42;101165.97;5075082;28;20056;-50
2022/01/06 00:52:34;;;;;;;10.57;3.15;;;;;;;0.92;99.73;101169.44;5078048;28;20063;-50
2022/01/06 00:55:04;;;;;;;7.45;2.45;;;;;;;0.84;100.00;101170.38;5078723;28;20056;-50
2022/01/06 00:57:32;;;;;;;8.15;2.22;;;;;;;0.79;100.00;101166.97;5077787;28;20053;-50
2022/01/06 01:00:00;;;;;;;8.77;3.08;;;;;;;0.63;100.00;101167.13;5077953;28;20059;-50
2022/01/06 01:02:28;;;;;;;10.00;2.80;;;;;;;0.62;100.00;101169.75;5077943;28;20592;-50
2022/01/06 01:04:57;;;;;;;13.23;2.55;;;;;;;0.64;100.00;101168.88;5076449;28;20060;-49
2022/01/06 01:07:25;;;;;;;7.05;2.30;;;;;;;0.61;100.00;101168.91;5077900;28;20496;-50
2022/01/06 01:09:54;;;;;;;8.48;2.33;;;;;;;0.55;100.00;101168.94;5077576;28;20135;-50
2022/01/06 01:12:25;;;;;;;14.23;2.95;;;;;;;0.49;100.00;101169.03;5078070;28;20060;-50
2022/01/06 01:14:57;;;;;;;9.05;2.92;;;;;;;0.39;100.00;101169.97;5077428;28;20070;-50
2022/01/06 01:17:27;;;;;;;8.75;2.60;;;;;;;0.22;100.00;101165.81;5077795;28;20053;-50
2022/01/06 01:19:55;;;;;;;12.02;2.83;;;;;;;0.24;100.00;101168.41;5077579;28;20052;-50
2022/01/06 01:22:23;;;;;;;9.90;2.63;;;;;;;0.33;100.00;101169.16;5077583;28;20058;-50
2022/01/06 01:24:51;;;;;;;9.20;2.20;;;;;;;0.23;100.00;101162.28;5078021;28;20424;-50
2022/01/06 01:27:22;;;;;;;10.13;2.70;;;;;;;0.30;100.00;101163.09;5077779;28;20056;-50
2022/01/06 01:29:58;;;;;;;10.90;2.40;;;;;;;0.27;100.00;101153.56;5078266;28;20061;-50
2022/01/06 01:32:31;;;;;;;11.55;2.70;;;;;;;0.24;100.00;101158.81;5078572;28;20140;-50
2022/01/06 01:35:01;;;;;;;12.70;2.95;;;;;;;0.28;100.00;101152.69;5077875;28;20064;-50
2022/01/06 01:37:30;;;;;;;11.85;2.78;;;;;;;0.28;100.00;101150.06;5077059;28;20423;-49
2022/01/06 01:40:00;;;;;;;10.02;2.70;;;;;;;0.27;100.00;101155.31;5077239;28;20067;-50
2022/01/06 01:42:28;;;;;;;6.45;2.63;;;;;;;0.20;100.00;101157.09;5077182;28;20419;-50
2022/01/06 01:44:58;;;;;;;16.08;3.00;;;;;;;0.14;100.00;101152.81;5077187;28;20071;-48
2022/01/06 01:47:31;;;;;;;12.40;2.45;;;;;;;0.05;100.00;101152.03;5077689;28;20067;-50
2022/01/06 01:50:11;;;;;;;12.40;2.78;;;;;;;-0.04;100.00;101142.53;5077029;28;20531;-50
2022/01/06 01:52:40;;;;;;;10.13;2.50;;;;;;;-0.13;100.00;101137.41;5077620;28;20053;-50
2022/01/06 01:55:09;;;;;;;10.25;2.30;;;;;;;-0.06;100.00;101159.94;5077805;28;20060;-49
2022/01/06 01:57:37;;;;;;;8.43;2.50;;;;;;;-0.07;100.00;101159.09;5078041;28;20388;-50
2022/01/06 02:00:09;;;;;;;8.18;2.28;;;;;;;-0.05;100.00;101161.66;5076801;28;20071;-47
2022/01/06 02:02:37;;;;;;;6.93;2.50;;;;;;;-0.04;100.00;101159.03;5076493;28;20059;-50
2022/01/06 02:05:06;;;;;;;5.43;2.20;;;;;;;-0.11;100.00;101162.59;5076503;28;20056;-49
2022/01/06 02:07:35;;;;;;;11.07;2.47;;;;;;;-0.07;100.00;101164.31;5076488;28;20066;-50
2022/01/06 02:10:04;;;;;;;8.32;2.53;;;;;;;-0.03;100.00;101168.59;5077306;28;20061;-50
2022/01/06 02:12:36;;;;;;;8.75;2.47;;;;;;;-0.06;100.00;101168.63;5076970;28;20420;-49
2022/01/06 02:15:05;;;;;;;11.35;2.58;;;;;;;0.09;100.00;101166.78;5077142;28;20492;-50
2022/01/06 02:17:36;;;;;;;6.95;2.03;;;;;;;0.16;100.00;101163.25;5076553;28;20056;-50
2022/01/06 02:20:07;;;;;;;8.05;2.42;;;;;;;0.25;100.00;101165.75;5076235;28;20061;-49
2022/01/06 02:22:35;;;;;;;9.68;2.35;;;;;;;0.27;100.00;101163.13;5077668;28;20089;-50
2022/01/06 02:25:12;;;;;;;10.15;3.00;;;;;;;0.22;100.00;101170.13;5076443;28;20056;-50
2022/01/06 02:27:40;;;;;;;7.82;2.55;;;;;;;0.07;100.00;101168.50;5077284;28;20056;-50
2022/01/06 02:30:10;;;;;;;11.40;2.83;;;;;;;0.07;100.00;101160.69;5076322;28;20066;-49
2022/01/06 02:32:39;;;;;;;11.50;2.72;;;;;;;0.14;100.00;101165.00;5076262;28;20059;-50
2022/01/06 02:35:11;;;;;;;10.05;2.50;;;;;;;0.15;100.00;101165.00;5075877;28;20061;-50
2022/01/06 02:37:38;;;;;;;;;;;;;;;0.20;100.00;101172.75;5076408;28;20070;-50
2022/01/06 02:40:08;;;;;;;6.47;2.10;;;;;;;0.10;100.00;101172.00;5076146;28;19928;-50
2022/01/06 02:42:40;;;;;;;8.60;2.83;;;;;;;0.05;100.00;101167.66;5076676;28;20048;-47
2022/01/06 02:45:08;;;;;;;;;;;;;;;0.04;100.00;101177.25;5076532;28;20064;-49
2022/01/06 02:47:37;;;;;;;10.70;2.25;;;;;;;0.10;100.00;101181.53;5076308;28;19920;-50
2022/01/06 02:50:06;;;;;;;12.43;2.45;;;;;;;0.05;100.00;101178.09;5075901;28;20056;-51
2022/01/06 02:52:36;;;;;;;12.73;2.30;;;;;;;0.10;100.00;101173.72;5075903;28;20621;-50
2022/01/06 02:55:07;;;;;;;12.35;2.08;;;;;;;0.08;100.00;101168.50;5076379;28;20083;-50
2022/01/06 02:57:35;;;;;;;14.27;2.45;;;;;;;0.10;100.00;101172.00;5076425;28;20063;-50
2022/01/06 03:00:04;;;;;;;11.85;2.03;;;;;;;0.11;100.00;101175.47;5076025;28;20055;-50
2022/01/06 03:02:32;;;;;;;8.55;2.35;;;;;;;0.13;100.00;101161.50;5075965;28;20130;-50
2022/01/06 03:05:01;;;;;;;8.05;2.13;;;;;;;0.22;100.00;101165.81;5076536;28;20060;-50
2022/01/06 03:07:29;;;;;;;7.63;1.90;;;;;;;0.25;100.00;101173.56;5075697;28;20068;-50
2022/01/06 03:10:00;;;;;;;8.43;2.55;;;;;;;0.24;100.00;101169.25;5075310;28;20056;-50
2022/01/06 03:12:33;;;;;;;10.32;2.10;;;;;;;0.23;100.00;101172.72;5075134;28;20067;-50
2022/01/06 03:15:01;;;;;;;10.30;2.00;;;;;;;0.26;100.00;101174.47;5075430;28;20056;-50
2022/01/06 03:17:30;;;;;;;5.60;2.42;;;;;;;0.17;100.00;101178.88;5075698;28;20057;-50
2022/01/06 03:19:58;;;;;;;8.77;2.17;;;;;;;0.03;100.00;101182.47;5075297;28;20053;-49
2022/01/06 03:22:26;;;;;;;6.55;2.45;;;;;;;-0.03;100.00;101179.03;5075263;28;20059;-50
2022/01/06 03:24:54;;;;;;;6.43;2.05;;;;;;;-0.03;100.00;101171.22;5074966;28;20504;-50
2022/01/06 03:27:24;;;;;;;8.60;2.15;;;;;;;0.01;100.00;101160.75;5076031;28;20068;-50
2022/01/06 03:29:52;;;;;;;9.77;2.10;;;;;;;0.12;100.00;101162.41;5075732;28;20056;-50
2022/01/06 03:32:20;;;;;;;7.03;1.95;;;;;;;0.16;100.00;101160.63;5075422;28;20056;-50
2022/01/06 03:34:49;;;;;;;7.82;2.15;;;;;;;0.17;100.00;101157.16;5074710;28;20504;-50
2022/01/06 03:37:17;;;;;;;7.32;2.35;;;;;;;0.35;100.00;101162.22;5074982;28;20052;-50
2022/01/06 03:39:45;;;;;;;7.28;2.28;;;;;;;0.45;100.00;101151.66;5075247;28;20064;-49
2022/01/06 03:42:14;;;;;;;12.65;2.92;;;;;;;0.50;100.00;101147.25;5074930;28;20053;-50
2022/01/06 03:44:44;;;;;;;8.63;2.10;;;;;;;0.51;100.00;101141.16;5076019;28;20056;-50
2022/01/06 03:47:12;;;;;;;12.70;3.30;;;;;;;0.54;100.00;101138.53;5074798;28;20052;-49
2022/01/06 03:49:40;;;;;;;12.43;2.72;;;;;;;0.57;100.00;101140.22;5075044;28;20067;-50
2022/01/06 03:52:08;;;;;;;10.95;2.33;;;;;;;0.54;100.00;101135.91;5074712;28;20131;-49
2022/01/06 03:54:37;;;;;;;12.77;2.00;;;;;;;0.67;100.00;101132.28;5075495;28;20082;-50
2022/01/06 03:57:06;;;;;;;8.35;1.77;;;;;;;0.92;100.00;101134.59;5075347;28;20057;-49
2022/01/06 03:59:35;;;;;;;6.55;1.77;;;;;;;1.04;100.00;101137.06;5074893;28;20057;-50
2022/01/06 04:02:05;;;;;;;11.18;2.10;;;;;;;1.04;100.00;101139.69;5074942;28;20092;-50
2022/01/06 04:04:34;;;;;;;7.78;1.77;;;;;;;1.00;99.93;101130.13;5074305;28;20518;-50
2022/01/06 04:07:03;;;;;;;6.20;1.77;;;;;;;1.02;99.41;101136.22;5074807;28;20095;-50
2022/01/06 04:09:31;;;;;;;10.07;1.95;;;;;;;1.03;98.92;101135.34;5075030;28;20097;-50
2022/01/06 04:11:59;;;;;;;9.93;1.63;;;;;;;1.11;98.28;101135.25;5074682;28;20057;-50
2022/01/06 04:14:27;;;;;;;11.35;2.22;;;;;;;1.17;97.25;101132.53;5074595;28;20052;-50
2022/01/06 04:16:59;;;;;;;7.45;2.17;;;;;;;1.22;96.32;101124.63;5074300;28;20064;-49
2022/01/06 04:19:29;;;;;;;6.75;2.00;;;;;;;1.23;95.84;101121.16;5074104;28;20099;-50
2022/01/06 04:21:57;;;;;;;6.88;1.55;;;;;;;1.25;94.44;101112.38;5074260;28;20516;-50
2022/01/06 04:24:30;;;;;;;4.18;1.80;;;;;;;1.20;94.43;101115.97;5074529;28;20056;-50
2022/01/06 04:26:58;;;;;;;7.38;1.60;;;;;;;1.09;95.13;101116.97;5075293;28;20385;-49
2022/01/06 04:29:26;;;;;;;7.38;1.80;;;;;;;0.99;96.31;101115.34;5075348;28;20420;-50
2022/01/06 04:31:55;;;;;;;7.28;2.00;;;;;;;1.06;96.33;101121.34;5074491;28;20057;-50
2022/01/06 04:34:24;;;;;;;9.73;2.15;;;;;;;1.05;97.29;101120.50;5074456;28;20052;-50
2022/01/06 04:36:56;;;;;;;6.75;1.88;;;;;;;1.09;97.06;101114.34;5074713;28;20056;-49
2022/01/06 04:39:24;;;;;;;5.40;1.50;;;;;;;1.06;97.05;101122.22;5073889;28;20057;-50
2022/01/06 04:41:53;;;;;;;5.07;1.60;;;;;;;1.13;97.40;101115.19;5075201;28;20053;-50
2022/01/06 04:44:21;;;;;;;6.80;2.25;;;;;;;1.21;96.94;101128.13;5074390;28;20053;-49
2022/01/06 04:46:49;;;;;;;8.57;2.10;;;;;;;1.25;96.07;101122.00;5074010;28;20061;-50
2022/01/06 04:49:17;;;;;;;10.55;1.90;;;;;;;1.28;95.91;101114.09;5073947;28;20562;-50
2022/01/06 04:51:46;;;;;;;9.18;1.60;;;;;;;1.22;95.74;101114.19;5073979;28;20559;-51
2022/01/06 04:54:15;;;;;;;11.38;3.20;;;;;;;1.33;94.48;101122.75;5074190;28;20056;-50
2022/01/06 04:56:44;;;;;;;8.88;2.00;;;;;;;1.36;93.59;101117.47;5074149;28;20048;-50
2022/01/06 04:59:12;;;;;;;11.00;1.95;;;;;;;1.43;92.95;101118.22;5074539;28;20057;-50
2022/01/06 05:01:40;;;;;;;7.05;2.45;;;;;;;1.36;93.54;101117.47;5074705;28;20052;-50
2022/01/06 05:04:08;;;;;;;6.43;1.90;;;;;;;1.48;92.36;101121.66;5074995;28;20107;-50
2022/01/06 05:06:37;;;;;;;7.88;2.42;;;;;;;1.46;92.88;101113.84;5073802;28;20102;-50
2022/01/06 05:09:05;;;;;;;12.38;4.45;;;;;;;1.55;92.92;101123.28;5073865;28;20056;-50
2022/01/06 05:11:35;;;;;;;13.57;3.55;;;;;;;1.62;92.21;101137.16;5074106;28;20063;-50
2022/01/06 05:14:03;;;;;;;8.00;2.03;;;;;;;1.61;92.91;101128.41;5074699;28;20057;-50
2022/01/06 05:16:31;;;;;;;6.95;2.25;;;;;;;1.65;92.77;101135.34;5073991;28;20432;-53
2022/01/06 05:19:00;;;;;;;14.07;3.47;;;;;;;1.66;93.32;101130.97;5073675;28;20420;-52
2022/01/06 05:21:30;;;;;;;13.00;5.80;;;;;;;1.70;93.45;101132.66;5073701;28;20059;-53
2022/01/06 05:23:58;;;;;;;19.88;8.00;;;;;;;1.75;93.46;101129.94;5074318;28;20064;-53
2022/01/06 05:26:26;;;;;;;15.57;6.55;;;;;;;1.81;93.53;101135.09;5073712;28;20091;-49
2022/01/06 05:28:56;;;;;;;6.47;2.17;;;;;;;1.90;93.39;101123.63;5073912;28;20056;-50
2022/01/06 05:31:24;;;;;;;5.82;1.85;;;;;;;1.94;92.73;101131.41;5073916;28;20131;-51
2022/01/06 05:33:53;;;;;;;7.03;2.80;;;;;;;1.92;92.84;101132.34;5073629;28;20079;-50
2022/01/06 05:36:21;;;;;;;9.35;3.63;;;;;;;1.92;93.51;101132.34;5074917;28;20099;-50
2022/01/06 05:38:49;;;;;;;9.23;3.03;;;;;;;1.89;93.42;101133.22;5077608;28;20057;-50
2022/01/06 05:41:17;;;;;;;7.53;2.95;;;;;;;1.93;93.40;101128.81;5077510;28;20407;-49
2022/01/06 05:43:45;;;;;;;15.18;6.75;;;;;;;1.98;93.41;101125.22;5076952;28;20053;-50
2022/01/06 05:46:15;;;;;;;11.23;4.60;;;;;;;1.97;93.10;101135.72;5077155;28;20056;-50
2022/01/06 05:48:44;;;;;;;23.23;6.88;;;;;;;2.07;93.23;101137.31;5077376;28;20056;-50
2022/01/06 05:51:13;;;;;;;21.92;5.50;;;;;;;2.05;93.61;101141.69;5077364;28;20064;-49
2022/01/06 05:53:41;;;;;;;13.15;3.60;;;;;;;2.09;93.67;101139.91;5077874;28;20056;-50
2022/01/06 05:56:10;;;;;;;6.03;2.65;;;;;;;2.10;93.28;101147.72;5076787;28;20056;-50
2022/01/06 05:58:39;;;;;;;7.50;2.58;;;;;;;2.07;93.94;101141.66;5076846;28;20060;-50
2022/01/06 06:01:08;;;;;;;10.85;2.80;;;;;;;2.11;93.45;101144.19;5076796;28;20052;-51
2022/01/06 06:03:38;;;;;;;10.00;4.68;;;;;;;2.11;94.00;101144.19;5077963;28;20091;-50
2022/01/06 06:06:06;;;;;;;9.07;3.60;;;;;;;2.15;93.99;101143.28;5077349;28;20080;-53
2022/01/06 06:08:34;;;;;;;9.32;2.50;;;;;;;2.14;93.56;101149.38;5076970;28;20053;-52
2022/01/06 06:11:02;;;;;;;10.23;2.90;;;;;;;2.14;92.86;101138.91;5076986;28;20049;-50
2022/01/06 06:13:30;;;;;;;9.40;3.08;;;;;;;2.15;92.46;101145.00;5077551;28;20056;-53
2022/01/06 06:15:59;;;;;;;8.07;2.85;;;;;;;2.22;91.63;101146.66;5076466;28;20052;-53
2022/01/06 06:18:27;;;;;;;8.75;2.60;;;;;;;2.24;91.69;101150.09;5076847;28;20053;-53
2022/01/06 06:20:56;;;;;;;10.98;3.30;;;;;;;2.34;91.00;101158.66;5076477;28;20071;-52
2022/01/06 06:23:25;;;;;;;7.50;2.72;;;;;;;2.39;90.17;101154.22;5076436;28;20053;-52
2022/01/06 06:25:53;;;;;;;10.35;3.25;;;;;;;2.42;89.17;101154.13;5076733;28;20071;-50
2022/01/06 06:28:21;;;;;;;14.70;5.07;;;;;;;2.44;89.26;101156.72;5076344;28;20052;-52
2022/01/06 06:30:49;;;;;;;6.28;2.60;;;;;;;2.49;89.47;101160.13;5076280;28;20064;-51
2022/01/06 06:33:17;;;;;;;12.82;2.72;;;;;;;2.43;89.17;101158.47;5076498;28;20532;-49
2022/01/06 06:35:46;;;;;;;11.30;2.95;;;;;;;2.50;88.24;101151.38;5075881;28;20067;-51
2022/01/06 06:38:15;;;;;;;8.70;3.08;;;;;;;2.47;88.79;101144.47;5076996;28;20067;-51
2022/01/06 06:40:44;;;;;;;9.57;2.67;;;;;;;2.42;89.10;101141.03;5077209;28;20057;-50
2022/01/06 06:43:13;;;;;;;9.20;3.15;;;;;;;2.47;88.39;101141.84;5076134;28;20064;-50
2022/01/06 06:45:42;;;;;;;8.23;2.60;;;;;;;2.51;87.48;101143.50;5076289;28;20404;-50
2022/01/06 06:48:10;;;;;;;11.43;2.70;;;;;;;2.52;87.32;101142.63;5075209;28;20056;-50
2022/01/06 06:50:38;;;;;;;12.70;2.10;;;;;;;2.55;86.21;101139.91;5075736;28;20052;-50
2022/01/06 06:53:08;;;;;;;7.15;2.40;;;;;;;2.64;84.81;101143.25;5075599;28;20053;-49
2022/01/06 06:55:37;;;;;;;9.63;2.38;;;;;;;2.77;82.91;101150.00;5075394;28;20053;-51
2022/01/06 06:58:06;;;;;;;9.85;2.38;;;;;;;2.89;81.53;101151.50;5075772;28;20060;-50
2022/01/06 07:00:34;;;;;;;5.22;1.90;;;;;;;2.92;81.67;101156.69;5075627;28;20053;-52
2022/01/06 07:03:02;;;;;;;8.90;2.45;;;;;;;2.92;81.76;101160.16;5075657;28;20052;-53
2022/01/06 07:05:31;;;;;;;10.82;2.50;;;;;;;2.92;80.96;101154.91;5075626;28;20052;-52
2022/01/06 07:07:59;;;;;;;8.88;1.90;;;;;;;2.96;81.12;101156.59;5075825;28;20480;-52
2022/01/06 07:10:27;;;;;;;7.22;1.77;;;;;;;3.02;81.25;101170.47;5075745;28;20068;-53
2022/01/06 07:12:57;;;;;;;5.75;1.92;;;;;;;2.95;81.68;101167.97;5075485;28;20059;-53
2022/01/06 07:15:27;;;;;;;5.97;1.80;;;;;;;3.02;81.52;101165.25;5075044;28;20063;-53
2022/01/06 07:17:55;;;;;;;7.53;1.77;;;;;;;2.96;81.32;101159.22;5076180;28;20060;-53
2022/01/06 07:20:23;;;;;;;11.15;2.42;;;;;;;2.95;81.63;101159.25;5075280;28;20060;-53
2022/01/06 07:22:52;;;;;;;4.72;2.22;;;;;;;2.96;81.40;101161.84;5075611;28;20052;-51
2022/01/06 07:25:21;;;;;;;8.25;2.33;;;;;;;3.00;79.72;101154.78;5075247;28;20068;-52
2022/01/06 07:27:49;;;;;;;9.60;2.83;;;;;;;2.97;80.10;101146.97;5075500;28;20053;-51
2022/01/06 07:30:19;;;;;;;11.50;2.08;;;;;;;3.01;79.37;101143.41;5075122;28;20060;-51
2022/01/06 07:32:49;;;;;;;6.72;1.92;;;;;;;2.98;79.98;101143.47;5074854;28;20056;-50
2022/01/06 07:35:19;;;;;;;7.60;1.90;;;;;;;2.98;80.12;101143.47;5076254;28;20063;-50
2022/01/06 07:37:48;;;;;;;6.88;2.20;;;;;;;2.93;80.43;101143.56;5076048;28;20067;-49
2022/01/06 07:40:17;;;;;;;8.50;2.10;;;;;;;2.98;79.71;101149.56;5075240;28;20060;-50
2022/01/06 07:42:45;;;;;;;5.32;1.70;;;;;;;3.02;79.81;101150.38;5075246;28;20052;-51
2022/01/06 07:45:14;;;;;;;4.88;1.50;;;;;;;3.11;78.42;101149.31;5075776;28;20052;-50
2022/01/06 07:47:55;;;;;;;6.75;2.10;;;;;;;3.02;78.77;101150.38;5075134;28;20087;-50
2022/01/06 07:50:25;;;;;;;9.82;2.40;;;;;;;2.97;79.56;101141.72;5075936;28;20062;-50
2022/01/06 07:52:53;;;;;;;14.50;2.13;;;;;;;2.92;79.99;101130.47;5075263;28;20435;-50
2022/01/06 07:55:21;;;;;;;9.23;2.40;;;;;;;2.97;80.53;101141.72;5075157;28;20090;-50
2022/01/06 07:57:50;;;;;;;8.18;3.05;;;;;;;3.03;80.35;101144.25;5074479;28;20060;-50
2022/01/06 08:00:19;;;;;;;13.77;2.67;;;;;;;3.03;80.04;101153.88;5074445;28;20582;-50
2022/01/06 08:02:49;;;;;;;8.35;3.30;;;;;;;3.02;80.39;101155.59;5074495;28;20550;-50
2022/01/06 08:05:20;;;;;;;10.20;3.22;;;;;;;2.93;80.74;101147.94;5075163;28;20087;-50
2022/01/06 08:07:48;;;;;;;12.45;4.65;;;;;;;2.98;80.92;101154.81;5074079;28;20060;-50
2022/01/06 08:10:16;;;;;;;12.30;4.57;;;;;;;2.96;81.22;101151.38;5074213;28;20064;-50
2022/01/06 08:12:45;;;;;;;15.48;5.82;;;;;;;2.97;80.88;101157.47;5074376;28;20059;-52
2022/01/06 08:15:14;;;;;;;12.57;4.95;;;;;;;2.91;81.32;101163.69;5074372;28;20505;-50
2022/01/06 08:17:42;;;;;;;13.57;5.10;;;;;;;2.93;81.67;101161.91;5074574;28;20058;-50
2022/01/06 08:20:17;;;;;;;19.30;7.82;;;;;;;2.98;81.24;101170.53;5074027;28;20098;-50
2022/01/06 08:22:46;;;;;;;19.98;7.57;;;;;;;3.02;81.24;101165.25;5074533;28;20056;-50
2022/01/06 08:25:14;;;;;;;19.15;7.68;;;;;;;3.04;81.45;101172.16;5074890;28;20067;-50
2022/01/06 08:27:42;;;;;;;28.00;7.13;;;;;;;3.06;80.19;101164.25;5074653;28;20063;-50
2022/01/06 08:30:11;;;;;;;13.57;5.47;;;;;;;3.15;79.14;101161.47;5074505;28;20071;-51
2022/01/06 08:32:40;;;;;;;12.00;5.15;;;;;;;3.15;79.47;101157.06;5074398;28;20061;-50
2022/01/06 08:35:08;;;;;;;14.98;4.72;;;;;;;3.22;78.68;101152.56;5074138;28;20065;-48
2022/01/06 08:37:38;;;;;;;11.05;4.55;;;;;;;3.17;78.45;101150.03;5074387;28;20060;-50
2022/01/06 08:40:08;;;;;;;13.85;4.00;;;;;;;3.10;78.88;101151.06;5074551;28;20067;-50
2022/01/06 08:42:36;;;;;;;11.02;4.00;;;;;;;3.01;79.04;101148.66;5074341;28;20090;-49
2022/01/06 08:45:06;;;;;;;14.00;4.03;;;;;;;2.93;79.43;101130.44;5075134;28;20421;-50
2022/01/06 08:47:34;;;;;;;9.73;3.33;;;;;;;2.79;79.66;101132.47;5074859;28;20067;-50
2022/01/06 08:50:02;;;;;;;9.75;3.40;;;;;;;2.71;80.19;101142.28;5073987;28;20053;-50
2022/01/06 08:52:30;;;;;;;17.80;4.97;;;;;;;2.68;80.26;101142.31;5073923;28;20060;-51
2022/01/06 08:55:00;;;;;;;13.32;4.75;;;;;;;2.63;80.92;101137.16;5074833;28;20063;-49
2022/01/06 08:57:28;;;;;;;12.00;4.47;;;;;;;2.68;80.80;101144.94;5074156;28;20075;-50
2022/01/06 08:59:57;;;;;;;10.63;3.35;;;;;;;2.84;81.14;101133.28;5074075;28;20064;-51
2022/01/06 09:02:26;;;;;;;13.32;3.28;;;;;;;3.04;80.00;101134.59;5074164;28;20059;-50
2022/01/06 09:04:55;;;;;;;9.40;2.92;;;;;;;3.07;78.97;101127.53;5074688;28;20399;-50
2022/01/06 09:07:25;;;;;;;9.25;3.60;;;;;;;3.15;78.42;101130.00;5074269;28;20056;-49
2022/01/06 09:09:53;;;;;;;15.50;4.10;;;;;;;3.21;78.52;101132.50;5073497;28;20529;-50
2022/01/06 09:12:23;;;;;;;10.68;3.30;;;;;;;3.44;78.82;101131.13;5077021;28;20064;-51
2022/01/06 09:14:51;;;;;;;14.45;3.17;;;;;;;3.64;77.04;101118.41;5077506;28;20052;-49
2022/01/06 09:17:19;;;;;;;11.40;3.47;;;;;;;3.83;76.91;101117.97;5077934;28;20057;-50
2022/01/06 09:19:47;;;;;;;14.82;3.42;;;;;;;4.08;74.33;101115.59;5077938;28;20060;-50
2022/01/06 09:22:16;;;;;;;10.05;2.92;;;;;;;4.28;75.08;101115.94;5076477;28;20060;-50
2022/01/06 09:24:44;;;;;;;12.82;3.47;;;;;;;4.63;75.43;101118.53;5078054;28;20052;-50
2022/01/06 09:27:12;;;;;;;14.07;3.72;;;;;;;5.24;72.21;101122.91;5077838;28;20403;-50
2022/01/06 09:29:42;;;;;;;9.00;3.60;;;;;;;6.00;67.00;101121.41;5077461;28;20428;-48
2022/01/06 09:32:10;;;;;;;17.25;3.38;;;;;;;6.68;65.07;101127.88;5077426;28;20061;-51
2022/01/06 09:34:38;;;;;;;9.27;3.05;;;;;;;7.74;60.57;101129.09;5077092;28;20062;-48
2022/01/06 09:37:07;;;;;;;8.85;3.20;;;;;;;8.54;57.76;101122.28;5077224;28;20071;-49
2022/01/06 09:39:35;;;;;;;11.90;3.88;;;;;;;9.63;55.16;101134.91;5078115;28;20057;-48
2022/01/06 09:42:05;;;;;;;14.65;3.47;;;;;;;10.98;51.26;101132.53;5077794;28;20057;-50
2022/01/06 09:44:33;;;;;;;10.60;3.03;;;;;;;12.51;45.70;101116.75;5076892;28;20063;-51
2022/01/06 09:47:03;;;;;;;10.40;3.53;;;;;;;13.70;43.01;101109.31;5077098;28;20095;-51
2022/01/06 09:49:37;;;;;;;12.02;3.20;;;;;;;15.17;38.63;101117.06;5076836;28;20110;-49
2022/01/06 09:52:06;;;;;;;8.45;2.65;;;;;;;16.44;35.24;101113.06;5077157;28;20063;-49
2022/01/06 09:54:35;;;;;;;8.25;2.60;;;;;;;17.56;31.92;101108.69;5077446;28;20056;-48
2022/01/06 09:57:08;;;;;;;10.18;2.78;;;;;;;17.42;33.31;101107.13;5076731;28;20539;-49
2022/01/06 09:59:36;;;;;;;11.27;2.90;;;;;;;17.42;33.31;101107.13;5077935;28;20388;-50
2022/01/06 10:02:06;;;;;;;6.78;1.88;;;;;;;18.50;28.74;101109.72;5076849;28;20091;-49
2022/01/06 10:04:35;;;;;;;10.05;2.60;;;;;;;18.79;28.82;101117.09;5077249;28;20056;-49
2022/01/06 10:07:05;;;;;;;6.30;1.80;;;;;;;19.30;28.31;101120.75;5077042;28;20083;-49
2022/01/06 10:09:34;;;;;;;8.00;2.20;;;;;;;19.66;26.66;101121.94;5077556;28;20064;-49
2022/01/06 10:12:08;;;;;;;5.55;1.40;;;;;;;19.58;26.48;101119.09;5076881;28;20520;-51
2022/01/06 10:14:41;;;;;;;6.63;1.38;;;;;;;19.76;26.36;101127.38;5077560;28;20048;-49
2022/01/06 10:17:12;;;;;;;6.68;1.23;;;;;;;18.16;27.29;101119.84;5076609;28;20513;-50
2022/01/06 10:19:41;;;;;;;6.95;1.55;;;;;;;15.59;31.40;101117.56;5077124;28;20049;-49
2022/01/06 10:22:15;;;;;;;5.65;1.42;;;;;;;14.32;33.57;101124.75;5076654;28;20131;-48
2022/01/06 10:24:45;;;;;;;9.95;1.40;;;;;;;13.87;34.33;101124.19;5076051;28;20060;-50
2022/01/06 10:27:14;;;;;;;6.18;1.45;;;;;;;14.11;34.43;101117.25;5076945;28;20057;-49
2022/01/06 10:29:44;;;;;;;3.10;1.00;;;;;;;13.13;35.95;101118.25;5076332;28;20060;-48
2022/01/06 10:32:16;;;;;;;5.25;1.40;;;;;;;13.17;35.97;101115.31;5076250;28;20057;-51
2022/01/06 10:34:46;;;;;;;3.20;1.10;;;;;;;11.68;38.59;101127.78;5076849;28;20057;-51
2022/01/06 10:37:19;;;;;;;5.13;1.13;;;;;;;10.69;40.27;101121.69;5076218;28;20055;-50
2022/01/06 10:39:49;;;;;;;7.65;1.30;;;;;;;10.29;41.74;101114.88;5076397;28;20052;-51
2022/01/06 10:42:17;;;;;;;5.25;1.70;;;;;;;9.71;42.55;101111.56;5077074;28;20057;-50
2022/01/06 10:44:47;;;;;;;6.93;1.35;;;;;;;9.06;44.26;101111.13;5076721;28;20053;-51
2022/01/06 10:47:29;;;;;;;5.70;1.30;;;;;;;8.64;45.72;101107.72;5076057;28;20057;-50
2022/01/06 10:50:11;;;;;;;6.15;1.27;;;;;;;8.28;46.75;101100.44;5075761;28;20057;-48
2022/01/06 10:52:42;;;;;;;8.02;1.58;;;;;;;8.10;47.70;101086.25;5075684;28;20052;-51
2022/01/06 10:55:12;;;;;;;6.85;1.48;;;;;;;7.98;48.96;101070.88;5075643;28;20068;-48
2022/01/06 10:57:51;;;;;;;7.97;2.15;;;;;;;8.02;48.84;101066.31;5075595;28;20056;-50
2022/01/06 11:00:20;;;;;;;7.38;1.63;;;;;;;8.01;50.09;101054.91;5076392;28;20053;-51
2022/01/06 11:02:49;;;;;;;4.22;1.40;;;;;;;8.16;50.00;101058.69;5075973;28;20056;-49
2022/01/06 11:05:18;;;;;;;7.72;1.50;;;;;;;8.23;50.12;101060.13;5076228;28;20091;-51
2022/01/06 11:07:46;;;;;;;6.90;1.63;;;;;;;8.16;50.03;101048.09;5075597;28;20064;-50
2022/01/06 11:10:19;;;;;;;12.15;2.00;;;;;;;8.02;49.99;101039.91;5075565;28;20056;-51
2022/01/06 11:12:47;;;;;;;9.73;2.03;;;;;;;8.04;50.75;101049.50;5076187;28;20142;-50
2022/01/06 11:15:15;;;;;;;9.57;2.35;;;;;;;8.01;50.94;101044.34;5075083;28;20144;-49
2022/01/06 11:17:47;;;;;;;4.60;1.58;;;;;;;7.89;51.06;101039.59;5075310;28;20053;-50
2022/01/06 11:20:17;;;;;;;;;;;;;;;7.86;52.08;101031.78;5075503;28;20534;-50
2022/01/06 11:22:50;;;;;;;8.60;1.80;;;;;;;7.69;51.56;101033.34;5075574;28;19927;-50
2022/01/06 11:25:18;;;;;;;5.63;1.90;;;;;;;7.74;52.12;101028.75;5075190;28;20052;-48
2022/01/06 11:27:46;;;;;;;9.02;1.63;;;;;;;7.72;51.41;101016.53;5074902;28;20060;-50
2022/01/06 11:30:16;;;;;;;4.50;1.63;;;;;;;7.93;51.95;101023.53;5076041;28;20056;-49
2022/01/06 11:32:44;;;;;;;4.78;1.70;;;;;;;8.04;50.74;101016.94;5075404;28;20052;-51
2022/01/06 11:35:18;;;;;;;12.32;1.95;;;;;;;8.04;50.99;101011.66;5075188;28;20056;-51
2022/01/06 11:37:48;;;;;;;8.40;2.67;;;;;;;8.46;50.92;101010.72;5074744;28;20053;-50
2022/01/06 11:40:29;;;;;;;15.02;4.53;;;;;;;8.62;49.58;101002.94;5074970;28;20503;-48
2022/01/06 11:42:57;;;;;;;18.35;5.82;;;;;;;8.73;49.29;101001.50;5074859;28;20060;-49